createdAt,value
2023-05-19T00:02:06.058Z,101890.41
2023-05-19T00:04:33.900Z,101884.91
2023-05-19T00:07:01.638Z,101879.97
2023-05-19T00:09:28.994Z,101887.91
2023-05-19T00:11:57.035Z,101888.13
2023-05-19T00:14:24.155Z,101892.59
2023-05-19T00:16:51.322Z,101894.63
2023-05-19T00:19:19.076Z,101897.00
2023-05-19T00:21:46.081Z,101886.53
2023-05-19T00:24:13.490Z,101875.00
2023-05-19T00:26:40.436Z,101888.75
2023-05-19T00:29:07.322Z,101888.81
2023-05-19T00:31:34.542Z,101882.75
2023-05-19T00:34:01.744Z,101887.25
2023-05-19T00:36:28.970Z,101875.84
2023-05-19T00:38:56.629Z,101883.53
2023-05-19T00:41:23.649Z,101883.03
2023-05-19T00:43:51.182Z,101884.84
2023-05-19T00:46:19.327Z,101879.53
2023-05-19T00:48:46.590Z,101881.31
2023-05-19T00:51:17.142Z,101879.34
2023-05-19T00:53:48.765Z,101878.72
2023-05-19T00:56:17.013Z,101880.47
2023-05-19T00:58:44.458Z,101882.41
2023-05-19T01:01:14.705Z,101887.38
2023-05-19T01:03:43.284Z,101890.25
2023-05-19T01:06:10.361Z,101876.13
2023-05-19T01:08:38.480Z,101878.16
2023-05-19T01:11:07.104Z,101879.75
2023-05-19T01:17:49.912Z,101879.53
2023-05-19T01:20:22.253Z,101877.41
2023-05-19T01:23:08.124Z,101875.97
2023-05-19T01:25:53.706Z,101871.84
2023-05-19T01:28:36.532Z,101874.69
2023-05-19T01:31:07.663Z,101870.06
2023-05-19T01:33:35.047Z,101881.94
2023-05-19T01:36:03.844Z,101883.56
2023-05-19T01:38:31.212Z,101875.41
2023-05-19T01:40:58.453Z,101886.03
2023-05-19T01:43:26.784Z,101879.88
2023-05-19T01:45:54.408Z,101880.63
2023-05-19T01:48:21.747Z,101887.63
2023-05-19T01:50:48.756Z,101889.44
2023-05-19T01:53:15.717Z,101885.88
2023-05-19T01:55:46.674Z,101886.31
2023-05-19T01:58:22.660Z,101886.47
2023-05-19T02:01:34.907Z,101885.44
2023-05-19T02:04:19.160Z,101888.84
2023-05-19T02:07:16.034Z,101890.63
2023-05-19T02:09:57.130Z,101890.34
2023-05-19T02:12:36.201Z,101890.63
2023-05-19T02:15:12.416Z,101887.19
2023-05-19T02:17:43.554Z,101880.16
2023-05-19T02:20:12.080Z,101887.88
2023-05-19T02:22:39.193Z,101887.31
2023-05-19T02:25:07.634Z,101883.88
2023-05-19T02:27:38.140Z,101886.75
2023-05-19T02:30:06.133Z,101891.00
2023-05-19T02:32:33.399Z,101889.84
2023-05-19T02:35:00.687Z,101890.16
2023-05-19T02:37:28.798Z,101878.66
2023-05-19T02:39:56.088Z,101882.28
2023-05-19T02:42:23.484Z,101875.19
2023-05-19T02:44:50.451Z,101873.63
2023-05-19T02:47:17.888Z,101880.88
2023-05-19T02:49:45.300Z,101868.06
2023-05-19T02:52:12.525Z,101869.16
2023-05-19T02:54:40.134Z,101865.59
2023-05-19T02:57:07.219Z,101862.69
2023-05-19T02:59:34.219Z,101866.31
2023-05-19T03:02:02.164Z,101869.16
2023-05-19T03:04:31.088Z,101869.34
2023-05-19T03:06:58.040Z,101868.72
2023-05-19T03:09:25.030Z,101875.78
2023-05-19T03:11:52.188Z,101867.94
2023-05-19T03:14:24.327Z,101865.16
2023-05-19T03:16:51.700Z,101865.72
2023-05-19T03:19:18.740Z,101868.13
2023-05-19T03:21:45.875Z,101863.09
2023-05-19T03:24:12.771Z,101866.00
2023-05-19T03:26:39.733Z,101869.13
2023-05-19T03:29:07.050Z,101870.84
2023-05-19T03:31:36.535Z,101867.34
2023-05-19T03:34:05.018Z,101865.34
2023-05-19T03:36:32.410Z,101866.94
2023-05-19T03:39:00.349Z,101863.97
2023-05-19T03:41:27.684Z,101866.63
2023-05-19T03:43:55.765Z,101862.56
2023-05-19T03:46:22.705Z,101872.72
2023-05-19T03:49:02.017Z,101875.69
2023-05-19T03:51:41.407Z,101865.22
2023-05-19T03:54:22.805Z,101867.16
2023-05-19T03:56:51.627Z,101874.13
2023-05-19T03:59:18.594Z,101873.34
2023-05-19T04:01:46.714Z,101866.94
2023-05-19T04:04:13.798Z,101871.34
2023-05-19T04:06:40.947Z,101865.66
2023-05-19T04:09:15.052Z,101873.38
2023-05-19T04:11:43.093Z,101870.88
2023-05-19T04:14:10.097Z,101882.84
2023-05-19T04:16:37.249Z,101877.34
2023-05-19T04:19:04.205Z,101878.63
2023-05-19T04:21:31.086Z,101875.38
2023-05-19T04:24:00.261Z,101875.28
2023-05-19T04:26:31.044Z,101874.22
2023-05-19T04:28:58.117Z,101876.47
2023-05-19T04:31:25.177Z,101876.59
2023-05-19T04:33:53.949Z,101880.94
2023-05-19T04:36:22.716Z,101886.09
2023-05-19T04:38:55.116Z,101884.22
2023-05-19T04:41:25.016Z,101877.03
2023-05-19T04:43:51.930Z,101883.81
2023-05-19T04:46:24.550Z,101878.50
2023-05-19T04:48:53.616Z,101886.22
2023-05-19T04:51:21.295Z,101881.84
2023-05-19T04:53:49.630Z,101886.81
2023-05-19T04:56:16.759Z,101878.53
2023-05-19T04:58:45.002Z,101883.88
2023-05-19T05:07:21.889Z,101877.56
2023-05-19T05:09:56.452Z,101880.94
2023-05-19T05:12:23.759Z,101886.63
2023-05-19T05:14:51.466Z,101891.38
2023-05-19T05:17:19.151Z,101883.38
2023-05-19T05:19:46.590Z,101886.59
2023-05-19T05:22:14.016Z,101885.88
2023-05-19T05:24:41.597Z,101893.13
2023-05-19T05:27:10.478Z,101886.69
2023-05-19T05:29:37.786Z,101888.94
2023-05-19T05:32:06.398Z,101878.09
2023-05-19T05:34:35.628Z,101879.38
2023-05-19T05:37:02.414Z,101880.50
2023-05-19T05:39:30.316Z,101880.84
2023-05-19T05:41:57.458Z,101888.59
2023-05-19T05:44:24.428Z,101880.88
2023-05-19T05:46:51.836Z,101882.53
2023-05-19T05:49:19.108Z,101882.78
2023-05-19T05:52:01.503Z,101880.56
2023-05-19T05:54:33.611Z,101882.16
2023-05-19T05:57:00.936Z,101883.81
2023-05-19T05:59:28.336Z,101883.59
2023-05-19T06:01:55.354Z,101881.03
2023-05-19T06:04:22.436Z,101881.59
2023-05-19T06:06:49.473Z,101881.91
2023-05-19T06:09:21.249Z,101881.66
2023-05-19T06:11:48.418Z,101883.16
2023-05-19T06:14:15.417Z,101877.56
2023-05-19T06:17:11.096Z,101877.44
2023-05-19T06:19:38.148Z,101876.22
2023-05-19T06:24:58.032Z,101872.66
2023-05-19T06:27:25.205Z,101869.75
2023-05-19T06:29:52.395Z,101877.38
2023-05-19T06:32:20.183Z,101879.13
2023-05-19T06:34:54.314Z,101883.28
2023-05-19T06:37:23.411Z,101882.25
2023-05-19T06:39:52.833Z,101884.72
2023-05-19T06:42:24.520Z,101882.91
2023-05-19T06:45:15.898Z,101883.22
2023-05-19T06:47:42.908Z,101881.59
2023-05-19T06:50:10.657Z,101873.94
2023-05-19T06:52:40.672Z,101878.34
2023-05-19T06:55:07.968Z,101877.91
2023-05-19T06:57:36.976Z,101880.50
2023-05-19T07:00:05.575Z,101883.16
2023-05-19T07:02:32.742Z,101876.78
2023-05-19T07:04:59.707Z,101878.84
2023-05-19T07:07:27.033Z,101878.75
2023-05-19T07:09:55.393Z,101890.97
2023-05-19T07:12:22.557Z,101878.84
2023-05-19T07:14:49.993Z,101883.84
2023-05-19T07:17:17.449Z,101887.03
2023-05-19T07:19:45.848Z,101882.38
2023-05-19T07:22:12.781Z,101883.81
2023-05-19T07:24:39.814Z,101886.69
2023-05-19T07:27:06.814Z,101885.31
2023-05-19T07:29:33.752Z,101884.78
2023-05-19T07:32:00.766Z,101882.50
2023-05-19T07:34:27.673Z,101880.63
2023-05-19T07:36:54.727Z,101876.72
2023-05-19T07:39:21.896Z,101873.94
2023-05-19T07:41:52.995Z,101878.34
2023-05-19T07:44:19.947Z,101863.41
2023-05-19T07:46:46.886Z,101871.91
2023-05-19T07:49:13.886Z,101866.13
2023-05-19T07:51:42.148Z,101867.47
2023-05-19T07:54:09.239Z,101869.47
2023-05-19T07:56:36.227Z,101863.09
2023-05-19T07:59:04.671Z,101860.19
2023-05-19T08:01:32.655Z,101861.03
2023-05-19T08:04:00.266Z,101854.66
2023-05-19T08:06:27.273Z,101853.97
2023-05-19T08:08:54.536Z,101865.34
2023-05-19T08:11:21.795Z,101861.16
2023-05-19T08:13:52.022Z,101857.00
2023-05-19T08:16:19.141Z,101863.31
2023-05-19T08:18:46.300Z,101854.56
2023-05-19T08:21:13.369Z,101855.56
2023-05-19T08:23:40.336Z,101856.59
2023-05-19T08:26:07.265Z,101859.28
2023-05-19T08:28:34.364Z,101863.75
2023-05-19T08:31:01.364Z,101861.34
2023-05-19T08:33:28.605Z,101862.81
2023-05-19T08:35:58.328Z,101858.47
2023-05-19T08:38:26.641Z,101857.44
2023-05-19T08:40:53.721Z,101855.44
2023-05-19T08:43:20.623Z,101855.94
2023-05-19T08:45:48.500Z,101863.63
2023-05-19T08:48:17.639Z,101855.53
2023-05-19T08:50:51.974Z,101862.53
2023-05-19T08:56:10.754Z,101845.50
2023-05-19T08:58:40.435Z,101844.44
2023-05-19T09:01:11.774Z,101842.59
2023-05-19T09:03:39.591Z,101846.47
2023-05-19T09:06:10.519Z,101852.16
2023-05-19T09:08:37.614Z,101836.38
2023-05-19T09:11:04.639Z,101842.06
2023-05-19T09:13:31.565Z,101829.94
2023-05-19T09:15:58.979Z,101832.94
2023-05-19T09:18:27.004Z,101834.13
2023-05-19T09:21:03.192Z,101837.34
2023-05-19T09:23:34.281Z,101824.56
2023-05-19T09:26:07.721Z,101828.97
2023-05-19T09:28:36.753Z,101825.91
2023-05-19T09:31:06.268Z,101811.28
2023-05-19T09:33:37.458Z,101817.66
2023-05-19T09:36:08.859Z,101813.78
2023-05-19T09:38:36.569Z,101814.47
2023-05-19T09:41:06.663Z,101809.47
2023-05-19T09:43:34.706Z,101808.16
2023-05-19T09:46:11.954Z,101819.44
2023-05-19T09:48:39.721Z,101814.19
2023-05-19T09:51:08.339Z,101807.97
2023-05-19T09:53:35.553Z,101813.41
2023-05-19T09:56:04.288Z,101818.22
2023-05-19T09:58:37.828Z,101808.72
2023-05-19T10:01:05.895Z,101815.50
2023-05-19T10:03:34.049Z,101813.38
2023-05-19T10:06:09.447Z,101799.81
2023-05-19T10:08:37.272Z,101801.44
2023-05-19T10:11:05.500Z,101797.38
2023-05-19T10:13:34.649Z,101800.81
2023-05-19T10:16:02.024Z,101799.19
2023-05-19T10:18:30.047Z,101798.88
2023-05-19T10:20:58.359Z,101793.06
2023-05-19T10:23:26.015Z,101791.78
2023-05-19T10:25:56.628Z,101796.66
2023-05-19T10:28:28.333Z,101790.09
2023-05-19T10:30:59.229Z,101801.25
2023-05-19T10:33:55.765Z,101794.63
2023-05-19T10:36:46.012Z,101797.31
2023-05-19T10:39:37.991Z,101789.19
2023-05-19T10:42:11.078Z,101796.31
2023-05-19T10:44:51.540Z,101795.03
2023-05-19T10:47:25.716Z,101789.56
2023-05-19T10:49:56.539Z,101788.25
2023-05-19T10:52:26.385Z,101773.94
2023-05-19T10:54:55.045Z,101779.16
2023-05-19T10:57:28.709Z,101780.19
2023-05-19T11:00:01.103Z,101770.41
2023-05-19T11:02:44.367Z,101763.44
2023-05-19T11:05:15.262Z,101778.38
2023-05-19T11:07:55.725Z,101775.56
2023-05-19T11:10:25.946Z,101773.84
2023-05-19T11:12:52.966Z,101766.13
2023-05-19T11:15:25.766Z,101762.72
2023-05-19T11:17:53.045Z,101757.44
2023-05-19T11:20:25.081Z,101756.47
2023-05-19T11:23:22.037Z,101750.25
2023-05-19T11:25:50.264Z,101752.66
2023-05-19T11:28:20.243Z,101756.84
2023-05-19T11:30:50.894Z,101759.78
2023-05-19T11:33:19.924Z,101759.41
2023-05-19T11:35:51.055Z,101751.56
2023-05-19T11:38:19.281Z,101759.28
2023-05-19T11:40:47.656Z,101745.47
2023-05-19T11:43:14.584Z,101744.97
2023-05-19T11:45:41.688Z,101746.44
2023-05-19T11:48:13.045Z,101750.34
2023-05-19T11:50:44.367Z,101748.59
2023-05-19T11:53:16.728Z,101741.38
2023-05-19T11:55:46.964Z,101738.94
2023-05-19T11:58:14.279Z,101749.25
2023-05-19T12:00:42.677Z,101756.84
2023-05-19T12:03:10.174Z,101743.47
2023-05-19T12:05:42.900Z,101754.03
2023-05-19T12:08:14.128Z,101743.22
2023-05-19T12:10:41.453Z,101742.97
2023-05-19T12:13:10.123Z,101750.16
2023-05-19T12:15:37.775Z,101749.06
2023-05-19T12:18:04.814Z,101746.22
2023-05-19T12:20:36.312Z,101740.81
2023-05-19T12:23:04.235Z,101755.13
2023-05-19T12:25:31.669Z,101743.00
2023-05-19T12:28:00.292Z,101730.59
2023-05-19T12:30:29.138Z,101738.59
2023-05-19T12:32:59.861Z,101745.25
2023-05-19T12:35:33.632Z,101735.97
2023-05-19T12:38:06.912Z,101740.59
2023-05-19T12:40:41.172Z,101743.50
2023-05-19T12:43:09.906Z,101743.34
2023-05-19T12:45:37.544Z,101741.06
2023-05-19T12:48:06.978Z,101730.91
2023-05-19T12:50:35.015Z,101730.72
2023-05-19T12:53:02.329Z,101730.06
2023-05-19T12:55:30.436Z,101723.81
2023-05-19T12:57:58.548Z,101724.13
2023-05-19T13:00:28.860Z,101717.34
2023-05-19T13:02:57.047Z,101729.72
2023-05-19T13:05:24.268Z,101720.69
2023-05-19T13:07:59.520Z,101704.56
2023-05-19T13:10:27.943Z,101713.59
2023-05-19T13:13:14.187Z,101717.72
2023-05-19T13:15:59.671Z,101725.25
2023-05-19T13:18:44.982Z,101719.72
2023-05-19T13:21:12.004Z,101715.91
2023-05-19T13:23:38.936Z,101717.25
2023-05-19T13:26:06.646Z,101704.88
2023-05-19T13:28:33.478Z,101715.19
2023-05-19T13:31:00.637Z,101710.72
2023-05-19T13:33:27.636Z,101717.63
2023-05-19T13:35:54.578Z,101708.59
2023-05-19T13:38:21.509Z,101705.03
2023-05-19T13:40:48.421Z,101710.03
2023-05-19T13:43:15.396Z,101704.75
2023-05-19T13:45:44.818Z,101706.47
2023-05-19T13:48:12.560Z,101709.16
2023-05-19T13:50:39.666Z,101706.03
2023-05-19T13:53:06.809Z,101708.31
2023-05-19T13:55:34.085Z,101702.75
2023-05-19T13:58:01.140Z,101712.88
2023-05-19T14:00:28.352Z,101709.41
2023-05-19T14:02:56.388Z,101716.50
2023-05-19T14:05:23.793Z,101709.66
2023-05-19T14:07:51.081Z,101707.13
2023-05-19T14:10:18.030Z,101710.44
2023-05-19T14:13:12.343Z,101705.19
2023-05-19T14:15:38.216Z,101704.91
2023-05-19T14:18:06.946Z,101709.75
2023-05-19T14:20:34.946Z,101709.09
2023-05-19T14:23:02.258Z,101704.41
2023-05-19T14:25:29.222Z,101709.81
2023-05-19T14:27:56.476Z,101713.59
2023-05-19T14:30:26.513Z,101707.81
2023-05-19T14:32:53.737Z,101720.25
2023-05-19T14:35:21.497Z,101715.34
2023-05-19T14:37:49.360Z,101724.47
2023-05-19T14:40:18.940Z,101726.03
2023-05-19T14:42:46.592Z,101736.38
2023-05-19T14:45:13.875Z,101727.28
2023-05-19T14:47:41.142Z,101735.13
2023-05-19T14:50:08.416Z,101728.28
2023-05-19T14:52:35.302Z,101729.28
2023-05-19T14:55:02.400Z,101734.03
2023-05-19T14:57:29.428Z,101735.72
2023-05-19T14:59:57.119Z,101728.44
2023-05-19T15:02:25.202Z,101724.59
2023-05-19T15:04:53.016Z,101719.47
2023-05-19T15:07:20.010Z,101715.91
2023-05-19T15:09:47.623Z,101718.50
2023-05-19T15:12:14.577Z,101724.25
2023-05-19T15:14:41.961Z,101720.44
2023-05-19T15:17:09.641Z,101729.69
2023-05-19T15:19:36.669Z,101717.63
2023-05-19T15:22:03.818Z,101721.38
2023-05-19T15:24:30.956Z,101716.78
2023-05-19T15:26:58.482Z,101704.16
2023-05-19T15:29:25.647Z,101704.34
2023-05-19T15:31:52.712Z,101711.72
2023-05-19T15:34:23.189Z,101709.03
2023-05-19T15:36:50.270Z,101717.16
2023-05-19T15:39:17.959Z,101720.97
2023-05-19T15:41:45.492Z,101715.72
2023-05-19T15:44:12.763Z,101711.44
2023-05-19T15:46:40.092Z,101702.28
2023-05-19T15:49:07.133Z,101705.63
2023-05-19T15:51:34.908Z,101705.88
2023-05-19T15:54:02.202Z,101697.75
2023-05-19T15:56:32.396Z,101706.88
2023-05-19T15:58:59.482Z,101712.31
2023-05-19T16:01:26.719Z,101704.59
2023-05-19T16:03:53.853Z,101703.06
2023-05-19T16:06:21.313Z,101706.66
2023-05-19T16:08:48.232Z,101704.78
2023-05-19T16:11:15.110Z,101697.31
2023-05-19T16:13:42.192Z,101702.88
2023-05-19T16:16:09.161Z,101704.84
2023-05-19T16:18:36.154Z,101693.13
2023-05-19T16:21:03.368Z,101689.44
2023-05-19T16:23:30.318Z,101699.75
2023-05-19T16:25:57.858Z,101691.19
2023-05-19T16:28:25.262Z,101696.03
2023-05-19T16:30:52.159Z,101688.34
2023-05-19T16:33:19.218Z,101691.19
2023-05-19T16:35:46.410Z,101692.06
2023-05-19T16:38:13.424Z,101685.13
2023-05-19T16:40:40.389Z,101682.84
2023-05-19T16:43:07.298Z,101681.81
2023-05-19T16:45:34.405Z,101681.13
2023-05-19T16:48:01.527Z,101683.16
2023-05-19T16:50:28.577Z,101683.56
2023-05-19T16:52:55.945Z,101685.22
2023-05-19T16:55:23.088Z,101698.72
2023-05-19T16:57:50.191Z,101694.00
2023-05-19T17:00:17.607Z,101699.13
2023-05-19T17:02:44.625Z,101699.63
2023-05-19T17:05:11.815Z,101702.38
2023-05-19T17:07:38.663Z,101684.84
2023-05-19T17:10:06.235Z,101690.47
2023-05-19T17:12:33.099Z,101698.63
2023-05-19T17:15:00.064Z,101698.91
2023-05-19T17:17:27.008Z,101695.38
2023-05-19T17:19:53.906Z,101688.78
2023-05-19T17:22:20.888Z,101687.94
2023-05-19T17:24:47.756Z,101694.06
2023-05-19T17:27:15.345Z,101689.19
2023-05-19T17:29:42.239Z,101692.81
2023-05-19T17:32:09.209Z,101700.22
2023-05-19T17:34:36.176Z,101708.53
2023-05-19T17:37:03.435Z,101705.16
2023-05-19T17:39:30.395Z,101705.91
2023-05-19T17:41:57.301Z,101700.44
2023-05-19T17:44:24.211Z,101711.69
2023-05-19T17:46:51.420Z,101699.81
2023-05-19T17:49:18.490Z,101704.13
2023-05-19T17:51:45.646Z,101701.19
2023-05-19T17:54:12.849Z,101713.66
2023-05-19T17:56:42.325Z,101714.38
2023-05-19T17:59:09.701Z,101712.44
2023-05-19T18:01:37.994Z,101716.59
2023-05-19T18:04:05.452Z,101717.56
2023-05-19T18:06:32.806Z,101714.25
2023-05-19T18:09:01.580Z,101718.50
2023-05-19T18:11:28.884Z,101719.31
2023-05-19T18:13:56.125Z,101717.84
2023-05-19T18:16:23.778Z,101713.06
2023-05-19T18:18:51.192Z,101721.84
2023-05-19T18:21:18.298Z,101717.66
2023-05-19T18:23:46.325Z,101718.03
2023-05-19T18:26:13.459Z,101719.59
2023-05-19T18:28:40.996Z,101724.75
2023-05-19T18:31:20.116Z,101732.63
2023-05-19T18:33:47.469Z,101726.41
2023-05-19T18:36:16.780Z,101728.81
2023-05-19T18:38:44.128Z,101740.19
2023-05-19T18:41:11.145Z,101728.09
2023-05-19T18:43:39.130Z,101735.84
2023-05-19T18:46:06.468Z,101734.78
2023-05-19T18:48:36.400Z,101744.47
2023-05-19T18:51:04.063Z,101746.69
2023-05-19T18:53:34.908Z,101745.81
2023-05-19T18:56:03.878Z,101748.16
2023-05-19T18:58:30.789Z,101750.84
2023-05-19T19:00:58.291Z,101749.59
2023-05-19T19:03:25.877Z,101746.47
2023-05-19T19:05:59.868Z,101748.72
2023-05-19T19:08:26.852Z,101745.59
2023-05-19T19:11:00.602Z,101744.63
2023-05-19T19:13:29.091Z,101751.06
2023-05-19T19:16:03.994Z,101745.16
2023-05-19T19:18:31.523Z,101751.66
2023-05-19T19:21:00.240Z,101737.59
2023-05-19T19:23:30.444Z,101752.94
2023-05-19T19:25:59.895Z,101746.69
2023-05-19T19:28:31.075Z,101747.66
2023-05-19T19:30:58.149Z,101745.84
2023-05-19T19:33:31.438Z,101748.66
2023-05-19T19:35:59.957Z,101758.03
2023-05-19T19:42:27.517Z,101754.47
2023-05-19T19:44:57.832Z,101753.41
2023-05-19T19:47:25.155Z,101751.78
2023-05-19T19:49:52.226Z,101755.28
2023-05-19T19:52:19.483Z,101754.75
2023-05-19T19:54:53.850Z,101754.84
2023-05-19T19:57:21.118Z,101757.97
2023-05-19T19:59:48.207Z,101755.28
2023-05-19T20:02:15.197Z,101752.16
2023-05-19T20:04:42.209Z,101759.63
2023-05-19T20:07:09.170Z,101754.69
2023-05-19T20:09:36.184Z,101753.06
2023-05-19T20:12:03.141Z,101756.16
2023-05-19T20:14:30.243Z,101756.06
2023-05-19T20:16:57.135Z,101755.28
2023-05-19T20:19:28.113Z,101757.28
2023-05-19T20:21:55.284Z,101755.38
2023-05-19T20:24:22.220Z,101759.78
2023-05-19T20:26:49.320Z,101770.66
2023-05-19T20:29:17.130Z,101763.06
2023-05-19T20:31:46.838Z,101768.91
2023-05-19T20:34:14.801Z,101765.38
2023-05-19T20:36:41.831Z,101766.31
2023-05-19T20:39:10.423Z,101774.34
2023-05-19T20:41:37.437Z,101774.00
2023-05-19T20:44:04.496Z,101773.00
2023-05-19T20:46:31.420Z,101776.09
2023-05-19T20:48:58.431Z,101778.56
2023-05-19T20:51:27.294Z,101779.63
2023-05-19T20:53:54.260Z,101774.56
2023-05-19T20:56:22.691Z,101781.72
2023-05-19T20:58:49.684Z,101775.69
2023-05-19T21:01:16.926Z,101777.72
2023-05-19T21:03:43.949Z,101771.69
2023-05-19T21:06:11.109Z,101779.63
2023-05-19T21:08:38.279Z,101779.81
2023-05-19T21:11:06.434Z,101784.28
2023-05-19T21:13:34.213Z,101772.44
2023-05-19T21:16:01.167Z,101774.34
2023-05-19T21:18:29.016Z,101780.84
2023-05-19T21:20:55.981Z,101778.53
2023-05-19T21:23:22.983Z,101776.84
2023-05-19T21:25:50.792Z,101790.47
2023-05-19T21:28:17.796Z,101795.34
2023-05-19T21:30:48.327Z,101786.16
2023-05-19T21:33:16.111Z,101790.94
2023-05-19T21:35:43.119Z,101790.34
2023-05-19T21:38:22.809Z,101796.00
2023-05-19T21:40:51.402Z,101800.44
2023-05-19T21:43:19.637Z,101801.03
2023-05-19T21:45:46.524Z,101806.78
2023-05-19T21:48:13.791Z,101807.81
2023-05-19T21:50:40.774Z,101805.06
2023-05-19T21:53:07.750Z,101806.59
2023-05-19T21:55:35.237Z,101812.56
2023-05-19T21:58:02.713Z,101812.28
2023-05-19T22:00:29.831Z,101811.53
2023-05-19T22:02:59.750Z,101815.06
2023-05-19T22:05:26.936Z,101817.13
2023-05-19T22:07:53.943Z,101813.03
2023-05-19T22:10:21.124Z,101808.91
2023-05-19T22:12:48.074Z,101810.25
2023-05-19T22:15:16.414Z,101810.34
2023-05-19T22:17:43.607Z,101814.56
2023-05-19T22:20:11.198Z,101810.44
2023-05-19T22:22:38.048Z,101820.19
2023-05-19T22:25:05.547Z,101829.41
2023-05-19T22:27:32.581Z,101817.88
2023-05-19T22:30:02.548Z,101824.28
2023-05-19T22:32:32.522Z,101825.16
2023-05-19T22:34:59.937Z,101828.78
2023-05-19T22:37:27.435Z,101823.00
2023-05-19T22:39:54.953Z,101820.34
2023-05-19T22:42:24.433Z,101821.75
2023-05-19T22:44:51.487Z,101827.09
2023-05-19T22:47:18.514Z,101824.50
2023-05-19T22:49:47.077Z,101828.22
2023-05-19T22:52:13.952Z,101820.44
2023-05-19T22:54:41.708Z,101827.09
2023-05-19T22:57:08.763Z,101827.19
2023-05-19T22:59:35.882Z,101825.47
2023-05-19T23:02:02.886Z,101825.88
2023-05-19T23:04:30.489Z,101821.31
2023-05-19T23:06:57.747Z,101820.22
2023-05-19T23:09:25.073Z,101822.78
2023-05-19T23:11:52.047Z,101818.47
2023-05-19T23:14:19.023Z,101813.38
2023-05-19T23:16:46.423Z,101816.34
2023-05-19T23:19:13.496Z,101823.47
2023-05-19T23:21:41.189Z,101810.09
2023-05-19T23:24:08.291Z,101813.06
2023-05-19T23:26:35.304Z,101819.63
2023-05-19T23:29:02.262Z,101820.00
2023-05-19T23:31:29.234Z,101820.94
2023-05-19T23:33:56.538Z,101819.81
2023-05-19T23:36:23.500Z,101820.50
2023-05-19T23:38:50.510Z,101817.06
2023-05-19T23:41:17.392Z,101814.38
2023-05-19T23:43:44.328Z,101808.00
2023-05-19T23:46:11.333Z,101804.81
2023-05-19T23:48:38.272Z,101804.13
2023-05-19T23:51:05.446Z,101806.63
2023-05-19T23:53:32.401Z,101805.00
2023-05-19T23:55:59.313Z,101813.59
2023-05-19T23:58:26.253Z,101815.25
